createdAt,value
2022-08-24T00:00:03.716Z,17.80
2022-08-24T00:03:04.717Z,17.80
2022-08-24T00:06:06.722Z,17.90
2022-08-24T00:09:09.642Z,17.80
2022-08-24T00:12:13.131Z,17.80
2022-08-24T00:15:15.660Z,17.90
2022-08-24T00:18:16.676Z,17.90
2022-08-24T00:21:18.656Z,17.90
2022-08-24T00:24:21.717Z,18.00
2022-08-24T00:27:23.719Z,17.90
2022-08-24T00:30:28.678Z,17.90
2022-08-24T00:33:29.676Z,17.90
2022-08-24T00:36:31.672Z,17.90
2022-08-24T00:39:33.683Z,18.00
2022-08-24T00:42:27.681Z,18.00
2022-08-24T00:45:31.711Z,18.00
2022-08-24T00:48:40.834Z,17.90
2022-08-24T00:51:49.728Z,18.00
2022-08-24T00:54:56.710Z,17.90
2022-08-24T00:58:02.861Z,18.00
2022-08-24T01:01:08.711Z,17.90
2022-08-24T01:04:11.731Z,17.90
2022-08-24T01:07:12.757Z,17.90
2022-08-24T01:10:16.744Z,17.90
2022-08-24T01:13:20.752Z,17.90
2022-08-24T01:16:42.816Z,17.90
2022-08-24T01:19:55.844Z,17.90
2022-08-24T01:23:24.717Z,17.90
2022-08-24T01:26:40.715Z,17.90
2022-08-24T01:29:42.884Z,17.90
2022-08-24T01:32:45.755Z,17.90
2022-08-24T01:35:47.785Z,17.90
2022-08-24T01:38:48.761Z,17.90
2022-08-24T01:41:49.799Z,17.90
2022-08-24T01:44:52.935Z,17.90
2022-08-24T01:47:53.778Z,17.80
2022-08-24T01:50:54.760Z,17.80
2022-08-24T01:53:55.741Z,17.80
2022-08-24T01:56:56.730Z,17.80
2022-08-24T01:59:58.777Z,17.80
2022-08-24T02:03:06.976Z,17.80
2022-08-24T02:06:10.864Z,17.70
2022-08-24T02:09:13.731Z,17.70
2022-08-24T02:12:15.760Z,17.70
2022-08-24T02:15:18.787Z,17.70
2022-08-24T02:18:21.760Z,17.60
2022-08-24T02:21:24.737Z,17.60
2022-08-24T02:24:25.776Z,17.60
2022-08-24T02:27:26.869Z,17.60
2022-08-24T02:30:28.796Z,17.60
2022-08-24T02:33:29.762Z,17.60
2022-08-24T02:36:30.740Z,17.60
2022-08-24T02:39:31.743Z,17.60
2022-08-24T02:42:38.745Z,17.60
2022-08-24T02:45:39.744Z,17.60
2022-08-24T02:48:40.761Z,17.70
2022-08-24T02:51:45.833Z,17.70
2022-08-24T02:54:48.748Z,17.70
2022-08-24T02:57:49.840Z,17.70
2022-08-24T03:00:51.977Z,17.70
2022-08-24T03:03:53.751Z,17.80
2022-08-24T03:06:55.790Z,17.80
2022-08-24T03:09:56.773Z,17.80
2022-08-24T03:12:58.829Z,17.80
2022-08-24T03:15:59.789Z,17.90
2022-08-24T03:19:00.831Z,17.90
2022-08-24T03:22:02.825Z,17.90
2022-08-24T03:25:03.827Z,17.90
2022-08-24T03:28:04.836Z,18.00
2022-08-24T03:31:12.828Z,17.90
2022-08-24T03:34:14.897Z,17.90
2022-08-24T03:37:15.771Z,18.00
2022-08-24T03:40:22.715Z,18.00
2022-08-24T03:43:42.817Z,18.10
2022-08-24T03:46:49.836Z,18.10
2022-08-24T03:49:52.863Z,18.10
2022-08-24T03:52:53.867Z,18.10
2022-08-24T03:55:54.851Z,18.20
2022-08-24T03:58:55.864Z,18.20
2022-08-24T04:02:02.906Z,18.20
2022-08-24T04:05:04.794Z,18.30
2022-08-24T04:08:05.894Z,18.30
2022-08-24T04:11:07.060Z,18.30
2022-08-24T04:14:20.324Z,18.30
2022-08-24T04:17:37.832Z,18.30
2022-08-24T04:20:38.847Z,18.30
2022-08-24T04:23:46.981Z,18.30
2022-08-24T04:26:53.877Z,18.30
2022-08-24T04:29:54.898Z,18.40
2022-08-24T04:33:02.062Z,18.40
2022-08-24T04:36:03.881Z,18.40
2022-08-24T04:39:07.836Z,18.40
2022-08-24T04:42:13.905Z,18.40
2022-08-24T04:45:14.839Z,18.50
2022-08-24T04:48:15.827Z,18.50
2022-08-24T04:51:18.893Z,18.50
2022-08-24T04:54:20.873Z,18.50
2022-08-24T04:57:33.843Z,18.50
2022-08-24T05:00:34.865Z,18.50
2022-08-24T05:03:36.907Z,18.50
2022-08-24T05:06:40.964Z,18.50
2022-08-24T05:09:47.098Z,18.60
2022-08-24T05:12:47.871Z,18.50
2022-08-24T05:15:50.008Z,18.60
2022-08-24T05:18:51.980Z,18.50
2022-08-24T05:21:52.994Z,18.50
2022-08-24T05:24:53.925Z,18.40
2022-08-24T05:27:55.908Z,18.40
2022-08-24T05:30:56.927Z,18.40
2022-08-24T05:33:58.853Z,18.30
2022-08-24T05:36:59.867Z,18.30
2022-08-24T05:40:22.975Z,18.30
2022-08-24T05:43:23.935Z,18.30
2022-08-24T05:46:26.092Z,18.30
2022-08-24T05:49:26.934Z,18.30
2022-08-24T05:52:27.946Z,18.30
2022-08-24T05:55:28.959Z,18.30
2022-08-24T05:58:31.292Z,18.30
2022-08-24T06:01:35.060Z,18.30
2022-08-24T06:04:36.057Z,18.40
2022-08-24T06:07:38.095Z,18.40
2022-08-24T06:10:39.884Z,18.40
2022-08-24T06:13:40.936Z,18.50
2022-08-24T06:16:41.909Z,18.60
2022-08-24T06:19:43.942Z,18.60
2022-08-24T06:22:44.960Z,18.70
2022-08-24T06:26:03.935Z,18.80
2022-08-24T06:29:06.975Z,18.80
2022-08-24T06:32:11.929Z,18.80
2022-08-24T06:35:14.963Z,18.80
2022-08-24T06:38:17.423Z,18.80
2022-08-24T06:41:20.952Z,18.90
2022-08-24T06:44:22.908Z,18.80
2022-08-24T06:47:32.981Z,18.80
2022-08-24T06:50:33.997Z,18.80
2022-08-24T06:53:36.030Z,18.70
2022-08-24T06:56:37.911Z,18.80
2022-08-24T06:59:40.013Z,18.80
2022-08-24T07:02:41.000Z,18.80
2022-08-24T07:05:43.969Z,18.80
2022-08-24T07:08:56.931Z,18.80
2022-08-24T07:11:51.047Z,19.00
2022-08-24T07:14:51.936Z,19.10
2022-08-24T07:17:52.935Z,19.20
2022-08-24T07:20:54.068Z,19.30
2022-08-24T07:24:08.994Z,19.40
2022-08-24T07:27:10.994Z,19.40
2022-08-24T07:30:27.071Z,19.40
2022-08-24T07:33:32.922Z,19.30
2022-08-24T07:36:33.974Z,19.30
2022-08-24T07:39:37.393Z,19.30
2022-08-24T07:42:38.955Z,19.20
2022-08-24T07:45:42.073Z,19.10
2022-08-24T07:48:42.949Z,19.10
2022-08-24T07:51:46.552Z,19.00
2022-08-24T07:54:47.980Z,19.00
2022-08-24T07:57:49.040Z,19.00
2022-08-24T08:00:49.967Z,18.90
2022-08-24T08:03:51.013Z,19.00
2022-08-24T08:06:52.044Z,19.00
2022-08-24T08:09:53.055Z,19.10
2022-08-24T08:12:54.029Z,19.20
2022-08-24T08:15:59.360Z,19.20
2022-08-24T08:19:09.781Z,19.40
2022-08-24T08:22:30.012Z,19.60
2022-08-24T08:26:02.023Z,19.80
2022-08-24T08:29:22.072Z,20.10
2022-08-24T08:32:27.022Z,20.20
2022-08-24T08:35:28.063Z,20.30
2022-08-24T08:38:29.228Z,20.20
2022-08-24T08:41:32.038Z,20.20
2022-08-24T08:45:05.069Z,20.10
2022-08-24T08:48:42.169Z,20.10
2022-08-24T08:52:21.016Z,20.10
2022-08-24T08:55:53.430Z,20.00
2022-08-24T08:59:17.201Z,20.00
2022-08-24T09:02:40.045Z,20.00
2022-08-24T09:06:14.027Z,19.80
2022-08-24T09:09:24.053Z,19.80
2022-08-24T09:12:53.141Z,19.90
2022-08-24T09:16:21.049Z,19.90
2022-08-24T09:19:32.066Z,20.00
2022-08-24T09:22:35.077Z,20.00
2022-08-24T09:25:45.170Z,20.10
2022-08-24T09:28:56.014Z,20.00
2022-08-24T09:32:36.240Z,20.20
2022-08-24T09:36:13.228Z,20.30
2022-08-24T09:39:52.270Z,20.60
2022-08-24T09:43:21.036Z,21.10
2022-08-24T09:46:47.088Z,21.40
2022-08-24T09:50:13.070Z,21.60
2022-08-24T09:53:41.206Z,21.70
2022-08-24T09:56:56.602Z,21.80
2022-08-24T10:00:21.044Z,21.80
2022-08-24T10:03:38.633Z,21.80
2022-08-24T10:07:17.165Z,21.90
2022-08-24T10:10:24.065Z,22.00
2022-08-24T10:13:28.057Z,22.10
2022-08-24T10:16:41.228Z,22.20
2022-08-24T10:19:51.140Z,22.40
2022-08-24T10:23:19.085Z,22.50
2022-08-24T10:26:52.068Z,22.50
2022-08-24T10:30:27.729Z,22.30
2022-08-24T10:33:42.092Z,22.30
2022-08-24T10:36:58.092Z,22.30
2022-08-24T10:40:09.585Z,22.10
2022-08-24T10:43:37.176Z,21.90
2022-08-24T10:47:10.125Z,21.90
2022-08-24T10:50:31.113Z,22.00
2022-08-24T10:53:45.099Z,22.10
2022-08-24T10:57:12.422Z,22.30
2022-08-24T11:00:29.106Z,22.40
2022-08-24T11:03:35.084Z,22.60
2022-08-24T11:06:39.115Z,22.80
2022-08-24T11:10:06.133Z,22.80
2022-08-24T11:13:07.137Z,22.90
2022-08-24T11:16:13.198Z,22.90
2022-08-24T11:19:17.078Z,23.00
2022-08-24T11:26:26.213Z,23.10
2022-08-24T11:29:27.112Z,23.20
2022-08-24T11:32:52.207Z,23.20
2022-08-24T11:35:53.199Z,23.30
2022-08-24T11:38:56.260Z,23.30
2022-08-24T11:45:54.157Z,23.60
2022-08-24T11:49:14.140Z,23.90
2022-08-24T11:52:28.172Z,24.20
2022-08-24T11:55:47.116Z,24.50
2022-08-24T11:59:12.145Z,24.80
2022-08-24T12:02:25.364Z,24.80
2022-08-24T12:05:39.146Z,25.10
2022-08-24T12:08:59.138Z,25.30
2022-08-24T12:12:25.196Z,25.30
2022-08-24T12:16:01.239Z,25.30
2022-08-24T12:19:09.189Z,25.10
2022-08-24T12:22:15.189Z,25.10
2022-08-24T12:25:38.201Z,25.20
2022-08-24T12:29:05.259Z,25.40
2022-08-24T12:32:18.220Z,25.50
2022-08-24T12:35:26.333Z,25.50
2022-08-24T12:38:43.819Z,25.70
2022-08-24T12:41:55.326Z,25.80
2022-08-24T12:45:20.742Z,25.80
2022-08-24T12:48:50.266Z,25.80
2022-08-24T12:59:03.241Z,25.20
2022-08-24T13:02:20.211Z,25.10
2022-08-24T13:05:30.243Z,25.30
2022-08-24T13:08:59.183Z,25.50
2022-08-24T13:12:01.247Z,25.80
2022-08-24T13:15:11.220Z,25.80
2022-08-24T13:18:30.251Z,25.80
2022-08-24T13:21:51.231Z,25.60
2022-08-24T13:38:42.278Z,25.30
2022-08-24T13:48:29.308Z,25.80
2022-08-24T13:55:00.265Z,26.30
2022-08-24T13:58:45.228Z,26.50
2022-08-24T14:02:32.253Z,26.90
2022-08-24T14:06:03.222Z,27.00
2022-08-24T14:09:28.259Z,26.80
2022-08-24T14:29:54.068Z,26.00
2022-08-24T14:33:15.115Z,26.10
2022-08-24T14:36:37.146Z,26.20
2022-08-24T14:43:06.211Z,26.20
2022-08-24T15:00:20.100Z,25.80
2022-08-24T15:26:37.158Z,23.80
2022-08-24T15:36:47.120Z,24.00
2022-08-24T15:40:14.453Z,24.10
2022-08-24T16:09:48.174Z,23.50
2022-08-24T16:13:18.266Z,23.50
2022-08-24T16:27:27.202Z,23.30
2022-08-24T16:30:42.216Z,23.20
2022-08-24T16:48:04.606Z,22.90
2022-08-24T16:51:05.246Z,22.80
2022-08-24T16:54:07.249Z,22.80
2022-08-24T16:57:08.188Z,22.80
2022-08-24T17:00:11.259Z,22.80
2022-08-24T17:03:14.993Z,22.90
2022-08-24T17:06:19.191Z,23.20
2022-08-24T17:09:20.264Z,23.50
2022-08-24T17:12:22.202Z,23.80
2022-08-24T17:15:18.215Z,23.80
2022-08-24T17:18:26.264Z,23.50
2022-08-24T17:21:27.437Z,23.30
2022-08-24T17:24:32.258Z,23.20
2022-08-24T17:27:37.363Z,23.10
2022-08-24T17:30:38.292Z,22.80
2022-08-24T17:33:39.280Z,22.60
2022-08-24T17:36:34.255Z,22.60
2022-08-24T17:39:36.249Z,22.50
2022-08-24T17:42:52.635Z,22.40
2022-08-24T17:45:55.382Z,22.30
2022-08-24T17:48:58.250Z,22.20
2022-08-24T17:51:59.283Z,22.10
2022-08-24T17:55:00.337Z,22.10
2022-08-24T17:58:01.273Z,22.10
2022-08-24T18:01:02.380Z,22.00
2022-08-24T18:04:03.256Z,22.00
2022-08-24T18:07:04.248Z,21.90
2022-08-24T18:10:14.243Z,21.80
2022-08-24T18:13:16.225Z,21.70
2022-08-24T18:16:17.310Z,21.60
2022-08-24T18:19:18.271Z,21.50
2022-08-24T18:22:24.341Z,21.40
2022-08-24T18:25:29.297Z,21.40
2022-08-24T18:28:32.284Z,21.40
2022-08-24T18:31:36.305Z,21.30
2022-08-24T18:34:37.278Z,21.30
2022-08-24T18:37:41.435Z,21.30
2022-08-24T18:40:52.278Z,21.20
2022-08-24T18:43:53.273Z,21.10
2022-08-24T18:46:54.422Z,21.00
2022-08-24T18:49:55.294Z,20.90
2022-08-24T18:52:56.311Z,20.80
2022-08-24T18:56:03.150Z,20.70
2022-08-24T18:59:07.354Z,20.60
2022-08-24T19:02:26.451Z,20.50
2022-08-24T19:05:27.311Z,20.40
2022-08-24T19:08:28.338Z,20.40
2022-08-24T19:11:36.309Z,20.30
2022-08-24T19:14:37.369Z,20.30
2022-08-24T19:17:39.336Z,20.30
2022-08-24T19:20:43.496Z,20.20
2022-08-24T19:23:50.338Z,20.20
2022-08-24T19:26:51.299Z,20.10
2022-08-24T19:29:55.853Z,20.00
2022-08-24T19:32:58.267Z,19.90
2022-08-24T19:35:59.387Z,19.80
2022-08-24T19:39:00.492Z,19.70
2022-08-24T19:42:04.306Z,19.60
2022-08-24T19:45:23.360Z,19.50
2022-08-24T19:48:26.525Z,19.40
2022-08-24T19:51:28.342Z,19.30
2022-08-24T19:54:29.392Z,19.20
2022-08-24T19:57:54.305Z,19.20
2022-08-24T20:00:57.374Z,19.10
2022-08-24T20:03:58.462Z,19.10
2022-08-24T20:07:00.345Z,19.10
2022-08-24T20:10:01.301Z,19.00
2022-08-24T20:13:14.331Z,19.00
2022-08-24T20:16:17.400Z,19.00
2022-08-24T20:19:19.391Z,19.00
2022-08-24T20:22:21.414Z,18.90
2022-08-24T20:25:23.523Z,18.90
2022-08-24T20:28:36.023Z,18.90
2022-08-24T20:31:39.384Z,18.90
2022-08-24T20:34:41.547Z,18.80
2022-08-24T20:37:44.380Z,18.80
2022-08-24T20:40:45.486Z,18.80
2022-08-24T20:43:46.332Z,18.80
2022-08-24T20:46:47.474Z,18.80
2022-08-24T20:49:50.357Z,18.70
2022-08-24T20:52:51.365Z,18.70
2022-08-24T20:55:54.470Z,18.70
2022-08-24T20:58:55.445Z,18.60
2022-08-24T21:01:56.380Z,18.60
2022-08-24T21:04:57.594Z,18.60
2022-08-24T21:07:59.278Z,18.50
2022-08-24T21:11:01.395Z,18.50
2022-08-24T21:14:02.442Z,18.50
2022-08-24T21:17:03.427Z,18.50
2022-08-24T21:20:04.432Z,18.50
2022-08-24T21:23:05.504Z,18.50
2022-08-24T21:26:06.443Z,18.40
2022-08-24T21:29:08.343Z,18.40
2022-08-24T21:32:27.594Z,18.40
2022-08-24T21:35:29.368Z,18.30
2022-08-24T21:38:30.374Z,18.30
2022-08-24T21:41:31.371Z,18.30
2022-08-24T21:44:32.551Z,18.30
2022-08-24T21:47:37.392Z,18.30
2022-08-24T21:50:38.459Z,18.30
2022-08-24T21:53:39.404Z,18.30
2022-08-24T21:56:44.381Z,18.30
2022-08-24T21:59:45.401Z,18.20
2022-08-24T22:02:49.452Z,18.20
2022-08-24T22:05:50.398Z,18.20
2022-08-24T22:08:53.502Z,18.20
2022-08-24T22:11:55.376Z,18.20
2022-08-24T22:14:56.435Z,18.10
2022-08-24T22:17:59.469Z,18.20
2022-08-24T22:21:00.570Z,18.10
2022-08-24T22:24:01.500Z,18.10
2022-08-24T22:27:02.549Z,18.10
2022-08-24T22:30:03.412Z,18.10
2022-08-24T22:33:04.573Z,18.00
2022-08-24T22:36:06.488Z,18.00
2022-08-24T22:39:08.399Z,18.00
2022-08-24T22:42:09.398Z,18.00
2022-08-24T22:45:10.467Z,17.90
2022-08-24T22:48:12.426Z,17.90
2022-08-24T22:51:13.487Z,17.80
2022-08-24T22:54:14.455Z,17.80
2022-08-24T22:57:19.779Z,17.80
2022-08-24T23:00:21.619Z,17.70
2022-08-24T23:03:22.550Z,17.70
2022-08-24T23:06:23.519Z,17.60
2022-08-24T23:09:25.447Z,17.50
2022-08-24T23:12:34.596Z,17.50
2022-08-24T23:15:35.641Z,17.50
2022-08-24T23:18:54.528Z,17.40
2022-08-24T23:21:55.437Z,17.40
2022-08-24T23:24:57.541Z,17.30
2022-08-24T23:27:59.493Z,17.30
2022-08-24T23:31:00.474Z,17.20
2022-08-24T23:34:01.653Z,17.20
2022-08-24T23:37:03.465Z,17.10
2022-08-24T23:40:04.547Z,17.10
2022-08-24T23:43:05.484Z,17.10
2022-08-24T23:46:00.809Z,17.10
2022-08-24T23:48:55.639Z,17.10
2022-08-24T23:51:57.499Z,17.00
2022-08-24T23:55:20.045Z,16.90
2022-08-24T23:58:20.518Z,16.90
